createdAt,value
2022-11-03T00:03:01.328Z,98756.00
2022-11-03T00:06:07.618Z,98752.97
2022-11-03T00:09:16.389Z,98740.59
2022-11-03T00:12:21.933Z,98748.59
2022-11-03T00:15:30.150Z,98757.38
2022-11-03T00:18:35.800Z,98751.56
2022-11-03T00:21:42.010Z,98753.38
2022-11-03T00:24:47.555Z,98750.69
2022-11-03T00:27:59.042Z,98751.16
2022-11-03T00:31:12.453Z,98753.97
2022-11-03T00:34:18.039Z,98752.28
2022-11-03T00:37:23.606Z,98760.25
2022-11-03T00:40:29.150Z,98752.47
2022-11-03T00:43:38.119Z,98741.84
2022-11-03T00:46:46.262Z,98747.50
2022-11-03T00:49:51.898Z,98749.44
2022-11-03T00:52:57.514Z,98742.44
2022-11-03T00:56:04.123Z,98743.78
2022-11-03T00:59:13.061Z,98743.56
2022-11-03T01:02:21.378Z,98742.00
2022-11-03T01:05:39.178Z,98747.91
2022-11-03T01:08:44.834Z,98756.84
2022-11-03T01:12:01.068Z,98754.09
2022-11-03T01:15:07.415Z,98758.56
2022-11-03T01:18:15.926Z,98762.56
2022-11-03T01:21:22.293Z,98764.47
2022-11-03T01:24:27.945Z,98762.56
2022-11-03T01:27:33.495Z,98764.69
2022-11-03T01:30:39.051Z,98756.44
2022-11-03T01:33:48.683Z,98753.22
2022-11-03T01:36:54.313Z,98744.19
2022-11-03T01:39:59.828Z,98756.50
2022-11-03T01:43:21.171Z,98754.81
2022-11-03T01:46:31.893Z,98755.69
2022-11-03T01:49:49.828Z,98753.53
2022-11-03T01:53:02.421Z,98754.00
2022-11-03T01:56:09.499Z,98747.22
2022-11-03T01:59:16.305Z,98741.25
2022-11-03T02:02:22.162Z,98748.22
2022-11-03T02:05:33.463Z,98738.06
2022-11-03T02:08:47.033Z,98737.09
2022-11-03T02:12:05.240Z,98741.84
2022-11-03T02:15:16.846Z,98734.50
2022-11-03T02:18:27.868Z,98744.00
2022-11-03T02:21:51.516Z,98739.59
2022-11-03T02:25:14.480Z,98737.53
2022-11-03T02:28:27.683Z,98745.59
2022-11-03T02:31:44.994Z,98741.44
2022-11-03T02:35:03.386Z,98743.22
2022-11-03T02:38:18.497Z,98735.94
2022-11-03T02:41:28.854Z,98739.59
2022-11-03T02:44:41.231Z,98735.56
2022-11-03T02:47:49.737Z,98739.53
2022-11-03T02:50:57.307Z,98740.25
2022-11-03T02:54:15.602Z,98739.50
2022-11-03T02:57:33.435Z,98741.50
2022-11-03T03:00:52.042Z,98738.44
2022-11-03T03:04:04.388Z,98742.41
2022-11-03T03:07:18.800Z,98750.50
2022-11-03T03:10:32.960Z,98749.84
2022-11-03T03:13:38.737Z,98751.59
2022-11-03T03:17:01.909Z,98742.00
2022-11-03T03:20:18.792Z,98746.91
2022-11-03T03:23:29.858Z,98750.41
2022-11-03T03:26:45.685Z,98756.53
2022-11-03T03:30:00.896Z,98755.69
2022-11-03T03:33:12.808Z,98741.78
2022-11-03T03:36:25.010Z,98742.03
2022-11-03T03:39:39.200Z,98747.38
2022-11-03T03:42:51.472Z,98746.22
2022-11-03T03:46:05.846Z,98748.63
2022-11-03T03:49:14.891Z,98753.19
2022-11-03T03:52:21.851Z,98745.66
2022-11-03T03:55:40.397Z,98739.97
2022-11-03T03:58:48.542Z,98744.44
2022-11-03T04:01:54.282Z,98739.81
2022-11-03T04:05:02.510Z,98740.81
2022-11-03T04:08:08.755Z,98732.03
2022-11-03T04:11:26.964Z,98729.53
2022-11-03T04:14:44.859Z,98721.88
2022-11-03T04:18:05.507Z,98724.22
2022-11-03T04:21:29.706Z,98722.28
2022-11-03T04:24:35.591Z,98727.69
2022-11-03T04:27:41.439Z,98728.94
2022-11-03T04:30:53.410Z,98723.06
2022-11-03T04:34:04.902Z,98726.69
2022-11-03T04:37:16.854Z,98727.81
2022-11-03T04:40:22.547Z,98726.03
2022-11-03T04:43:38.474Z,98724.63
2022-11-03T04:46:44.357Z,98706.13
2022-11-03T04:49:51.317Z,98711.97
2022-11-03T04:53:02.294Z,98708.91
2022-11-03T04:56:20.707Z,98705.69
2022-11-03T04:59:26.308Z,98720.47
2022-11-03T05:02:40.403Z,98712.34
2022-11-03T05:05:46.118Z,98706.09
2022-11-03T05:09:01.937Z,98702.47
2022-11-03T05:12:08.870Z,98704.28
2022-11-03T05:15:34.826Z,98696.22
2022-11-03T05:18:46.411Z,98700.00
2022-11-03T05:21:55.528Z,98687.59
2022-11-03T05:25:28.816Z,98697.63
2022-11-03T05:28:41.359Z,98692.22
2022-11-03T05:31:51.783Z,98694.16
2022-11-03T05:35:00.003Z,98690.25
2022-11-03T05:38:18.149Z,98695.81
2022-11-03T05:41:32.439Z,98697.22
2022-11-03T05:44:42.897Z,98701.94
2022-11-03T05:47:50.872Z,98699.69
2022-11-03T05:51:00.350Z,98698.75
2022-11-03T05:54:19.837Z,98692.63
2022-11-03T05:57:32.856Z,98697.63
2022-11-03T06:00:48.825Z,98700.00
2022-11-03T06:03:54.907Z,98706.44
2022-11-03T06:07:06.878Z,98699.19
2022-11-03T06:10:42.472Z,98717.56
2022-11-03T06:14:01.144Z,98708.91
2022-11-03T06:17:10.407Z,98709.47
2022-11-03T06:20:30.565Z,98707.09
2022-11-03T06:23:39.291Z,98705.00
2022-11-03T06:26:49.562Z,98699.28
2022-11-03T06:30:19.477Z,98706.28
2022-11-03T06:33:31.483Z,98710.31
2022-11-03T06:36:49.514Z,98705.00
2022-11-03T06:40:05.895Z,98702.13
2022-11-03T06:43:29.019Z,98696.94
2022-11-03T06:46:37.179Z,98686.63
2022-11-03T06:49:43.474Z,98694.28
2022-11-03T06:52:53.462Z,98692.47
2022-11-03T06:55:59.151Z,98700.53
2022-11-03T06:59:04.757Z,98689.75
2022-11-03T07:02:58.283Z,98698.13
2022-11-03T07:06:17.288Z,98687.44
2022-11-03T07:09:28.170Z,98694.41
2022-11-03T07:12:35.686Z,98687.03
2022-11-03T07:15:41.971Z,98685.56
2022-11-03T07:18:51.085Z,98688.63
2022-11-03T07:22:01.357Z,98684.88
2022-11-03T07:25:16.899Z,98678.09
2022-11-03T07:28:22.865Z,98676.75
2022-11-03T07:31:29.689Z,98666.84
2022-11-03T07:34:37.981Z,98663.25
2022-11-03T07:37:43.637Z,98658.94
2022-11-03T07:40:49.936Z,98653.88
2022-11-03T07:44:02.357Z,98654.06
2022-11-03T07:47:16.665Z,98646.91
2022-11-03T07:50:25.004Z,98653.41
2022-11-03T07:53:43.593Z,98636.47
2022-11-03T07:56:55.742Z,98636.47
2022-11-03T08:00:10.398Z,98630.34
2022-11-03T08:03:39.691Z,98629.19
2022-11-03T08:06:48.408Z,98627.50
2022-11-03T08:09:54.629Z,98625.94
2022-11-03T08:13:00.141Z,98617.78
2022-11-03T08:16:06.134Z,98629.03
2022-11-03T08:19:12.467Z,98619.47
2022-11-03T08:22:20.934Z,98619.38
2022-11-03T08:25:26.457Z,98618.59
2022-11-03T08:28:32.731Z,98611.81
2022-11-03T08:31:38.401Z,98603.81
2022-11-03T08:34:43.982Z,98589.41
2022-11-03T08:37:52.351Z,98591.66
2022-11-03T08:40:58.586Z,98588.25
2022-11-03T08:44:04.327Z,98587.41
2022-11-03T08:47:09.928Z,98586.56
2022-11-03T08:50:15.646Z,98589.91
2022-11-03T08:53:23.992Z,98589.47
2022-11-03T08:56:30.379Z,98588.31
2022-11-03T08:59:35.969Z,98580.19
2022-11-03T09:02:41.686Z,98584.34
2022-11-03T09:05:47.680Z,98577.06
2022-11-03T09:12:21.784Z,98573.50
2022-11-03T09:15:27.648Z,98575.94
2022-11-03T09:18:34.245Z,98568.16
2022-11-03T09:21:39.953Z,98571.78
2022-11-03T09:24:48.162Z,98565.31
2022-11-03T09:27:53.877Z,98564.44
2022-11-03T09:30:59.505Z,98567.13
2022-11-03T09:34:05.132Z,98557.28
2022-11-03T09:37:10.943Z,98550.81
2022-11-03T09:40:21.827Z,98544.13
2022-11-03T09:43:27.483Z,98549.63
2022-11-03T09:46:35.397Z,98537.97
2022-11-03T09:49:41.068Z,98537.72
2022-11-03T09:52:51.317Z,98533.03
2022-11-03T09:56:01.011Z,98528.13
2022-11-03T09:59:18.728Z,98514.91
2022-11-03T10:02:30.479Z,98507.38
2022-11-03T10:05:37.319Z,98498.00
2022-11-03T10:08:46.215Z,98492.09
2022-11-03T10:11:58.160Z,98480.00
2022-11-03T10:15:03.987Z,98467.75
2022-11-03T10:18:11.984Z,98477.91
2022-11-03T10:21:22.169Z,98470.44
2022-11-03T10:24:28.932Z,98466.41
2022-11-03T10:27:37.239Z,98462.69
2022-11-03T10:34:37.663Z,98451.06
2022-11-03T10:37:43.352Z,98443.50
2022-11-03T10:40:49.062Z,98444.13
2022-11-03T10:44:21.130Z,98441.16
2022-11-03T10:47:37.027Z,98440.69
2022-11-03T10:50:44.977Z,98426.91
2022-11-03T10:53:50.565Z,98420.59
2022-11-03T10:56:56.542Z,98419.69
2022-11-03T11:00:04.928Z,98405.66
2022-11-03T11:03:14.968Z,98402.91
2022-11-03T11:06:28.789Z,98410.97
2022-11-03T11:09:34.472Z,98397.28
2022-11-03T11:12:40.129Z,98393.97
2022-11-03T11:15:51.481Z,98391.72
2022-11-03T11:19:14.742Z,98373.84
2022-11-03T11:22:26.267Z,98378.47
2022-11-03T11:26:17.751Z,98378.34
2022-11-03T11:29:44.810Z,98379.16
2022-11-03T11:33:17.109Z,98359.56
2022-11-03T11:36:27.397Z,98368.00
2022-11-03T11:39:48.231Z,98355.75
2022-11-03T11:43:30.076Z,98353.34
2022-11-03T11:46:44.044Z,98355.97
2022-11-03T11:49:53.027Z,98345.34
2022-11-03T11:53:26.123Z,98326.28
2022-11-03T11:56:34.975Z,98323.53
2022-11-03T11:59:40.905Z,98318.28
2022-11-03T12:02:51.119Z,98319.53
2022-11-03T12:05:59.497Z,98311.91
2022-11-03T12:09:10.655Z,98301.50
2022-11-03T12:12:36.523Z,98291.25
2022-11-03T12:16:00.647Z,98301.69
2022-11-03T12:19:38.626Z,98297.56
2022-11-03T12:22:46.853Z,98275.53
2022-11-03T12:25:52.466Z,98266.03
2022-11-03T12:28:58.776Z,98262.28
2022-11-03T12:32:04.541Z,98258.69
2022-11-03T12:35:13.789Z,98256.25
2022-11-03T12:38:22.122Z,98244.75
2022-11-03T12:41:27.831Z,98235.97
2022-11-03T12:44:33.714Z,98237.44
2022-11-03T12:47:39.406Z,98223.16
2022-11-03T12:50:45.113Z,98216.91
2022-11-03T12:53:56.113Z,98210.00
2022-11-03T12:57:01.784Z,98213.59
2022-11-03T13:00:12.737Z,98203.59
2022-11-03T13:03:18.374Z,98195.75
2022-11-03T13:06:24.578Z,98186.22
2022-11-03T13:09:32.972Z,98191.16
2022-11-03T13:12:41.626Z,98184.97
2022-11-03T13:15:47.951Z,98182.50
2022-11-03T13:18:53.637Z,98179.13
2022-11-03T13:21:59.315Z,98167.41
2022-11-03T13:25:10.397Z,98157.34
2022-11-03T13:28:16.304Z,98155.91
2022-11-03T13:31:22.027Z,98148.69
2022-11-03T13:34:37.837Z,98149.31
2022-11-03T13:37:44.270Z,98136.28
2022-11-03T13:41:01.132Z,98148.66
2022-11-03T13:44:25.585Z,98137.72
2022-11-03T13:47:49.651Z,98138.34
2022-11-03T13:50:57.123Z,98132.16
2022-11-03T14:00:56.940Z,98136.22
2022-11-03T14:07:28.911Z,98127.75
2022-11-03T14:10:34.667Z,98119.72
2022-11-03T14:13:40.278Z,98116.88
2022-11-03T14:16:46.038Z,98122.41
2022-11-03T14:19:52.807Z,98111.50
2022-11-03T14:23:00.170Z,98111.25
2022-11-03T14:26:23.621Z,98108.19
2022-11-03T14:29:43.669Z,98098.47
2022-11-03T14:32:49.356Z,98108.72
2022-11-03T14:35:54.975Z,98107.50
2022-11-03T14:39:02.058Z,98102.13
2022-11-03T14:42:16.791Z,98103.97
2022-11-03T14:45:25.412Z,98103.19
2022-11-03T14:48:37.718Z,98098.44
2022-11-03T14:51:47.197Z,98090.41
2022-11-03T14:54:53.705Z,98090.41
2022-11-03T14:57:59.353Z,98080.09
2022-11-03T15:01:08.052Z,98079.22
2022-11-03T15:04:13.715Z,98077.56
2022-11-03T15:07:19.460Z,98071.78
2022-11-03T15:10:25.214Z,98076.91
2022-11-03T15:13:30.923Z,98068.25
2022-11-03T15:16:39.259Z,98074.41
2022-11-03T15:19:47.204Z,98066.75
2022-11-03T15:26:19.163Z,98057.63
2022-11-03T15:29:26.232Z,98054.38
2022-11-03T15:32:36.544Z,98055.56
2022-11-03T15:35:42.340Z,98048.53
2022-11-03T15:38:47.966Z,98046.59
2022-11-03T15:41:53.547Z,98038.94
2022-11-03T15:44:59.145Z,98031.00
2022-11-03T15:48:08.122Z,98034.69
2022-11-03T15:51:15.024Z,98035.03
2022-11-03T15:54:20.574Z,98032.09
2022-11-03T15:57:26.272Z,98026.84
2022-11-03T16:00:32.433Z,98029.22
2022-11-03T16:03:40.648Z,98024.44
2022-11-03T16:07:06.835Z,98020.69
2022-11-03T16:10:12.534Z,98011.44
2022-11-03T16:13:18.162Z,98009.88
2022-11-03T16:16:23.759Z,98004.19
2022-11-03T16:19:31.906Z,98015.06
2022-11-03T16:22:37.642Z,98010.59
2022-11-03T16:25:43.640Z,98012.72
2022-11-03T16:28:49.263Z,98004.69
2022-11-03T16:31:54.884Z,98002.19
2022-11-03T16:35:03.146Z,98001.00
2022-11-03T16:38:10.472Z,97990.53
2022-11-03T16:41:16.359Z,97972.81
2022-11-03T16:44:22.388Z,97971.47
2022-11-03T16:47:28.257Z,97972.69
2022-11-03T16:50:40.092Z,97962.94
2022-11-03T16:53:48.767Z,97965.78
2022-11-03T16:56:55.027Z,97961.38
2022-11-03T17:00:00.937Z,97952.03
2022-11-03T17:03:09.407Z,97953.13
2022-11-03T17:06:17.796Z,97953.72
2022-11-03T17:09:23.649Z,97955.59
2022-11-03T17:12:29.209Z,97943.22
2022-11-03T17:15:34.834Z,97941.94
2022-11-03T17:18:40.513Z,97947.16
2022-11-03T17:21:48.736Z,97949.66
2022-11-03T17:24:54.686Z,97939.81
2022-11-03T17:28:06.162Z,97944.06
2022-11-03T17:31:12.215Z,97941.94
2022-11-03T17:34:26.858Z,97936.63
2022-11-03T17:37:37.737Z,97943.25
2022-11-03T17:40:45.457Z,97952.31
2022-11-03T17:43:51.146Z,97933.31
2022-11-03T17:46:59.925Z,97933.59
2022-11-03T17:50:05.894Z,97933.31
2022-11-03T17:53:24.944Z,97918.75
2022-11-03T17:56:31.401Z,97919.47
2022-11-03T17:59:38.140Z,97899.94
2022-11-03T18:02:44.602Z,97889.91
2022-11-03T18:05:50.348Z,97877.78
2022-11-03T18:08:59.532Z,97872.50
2022-11-03T18:12:17.640Z,97872.88
2022-11-03T18:15:28.595Z,97865.00
2022-11-03T18:18:39.274Z,97877.50
2022-11-03T18:21:45.767Z,97870.72
2022-11-03T18:24:55.679Z,97864.34
2022-11-03T18:28:01.295Z,97865.09
2022-11-03T18:31:11.553Z,97861.84
2022-11-03T18:34:23.907Z,97853.84
2022-11-03T18:37:29.590Z,97851.69
2022-11-03T18:40:40.073Z,97842.63
2022-11-03T18:43:45.999Z,97843.78
2022-11-03T18:46:52.975Z,97841.75
2022-11-03T18:49:58.570Z,97830.13
2022-11-03T18:53:04.956Z,97820.75
2022-11-03T18:56:23.060Z,97825.19
2022-11-03T18:59:35.351Z,97819.00
2022-11-03T19:02:41.145Z,97816.44
2022-11-03T19:05:48.424Z,97813.03
2022-11-03T19:09:02.392Z,97811.56
2022-11-03T19:12:17.218Z,97798.44
2022-11-03T19:15:27.798Z,97790.34
2022-11-03T19:18:39.069Z,97782.94
2022-11-03T19:21:44.722Z,97782.84
2022-11-03T19:24:51.085Z,97784.22
2022-11-03T19:27:59.591Z,97774.34
2022-11-03T19:31:05.802Z,97768.56
2022-11-03T19:34:20.723Z,97768.03
2022-11-03T19:37:28.774Z,97759.88
2022-11-03T19:40:38.319Z,97755.00
2022-11-03T19:43:44.210Z,97751.97
2022-11-03T19:46:56.627Z,97746.75
2022-11-03T19:50:04.411Z,97745.84
2022-11-03T19:53:11.086Z,97737.31
2022-11-03T19:56:19.431Z,97735.59
2022-11-03T19:59:28.817Z,97737.81
2022-11-03T20:02:34.641Z,97732.09
2022-11-03T20:05:46.560Z,97722.63
2022-11-03T20:08:55.110Z,97719.44
2022-11-03T20:12:07.772Z,97714.66
2022-11-03T20:15:22.672Z,97717.34
2022-11-03T20:18:28.451Z,97715.75
2022-11-03T20:21:35.661Z,97707.50
2022-11-03T20:24:41.665Z,97706.69
2022-11-03T20:27:47.447Z,97708.53
2022-11-03T20:30:56.802Z,97709.91
2022-11-03T20:34:02.455Z,97710.47
2022-11-03T20:37:19.071Z,97698.72
2022-11-03T20:40:28.784Z,97696.47
2022-11-03T20:43:40.631Z,97696.59
2022-11-03T20:46:49.507Z,97692.88
2022-11-03T20:49:55.135Z,97684.44
2022-11-03T20:53:03.118Z,97691.84
2022-11-03T20:56:15.502Z,97689.38
2022-11-03T20:59:24.920Z,97686.63
2022-11-03T21:02:33.192Z,97685.59
2022-11-03T21:05:39.274Z,97679.25
2022-11-03T21:08:45.276Z,97687.25
2022-11-03T21:11:54.453Z,97688.53
2022-11-03T21:15:12.502Z,97684.41
2022-11-03T21:18:33.110Z,97678.66
2022-11-03T21:21:38.922Z,97671.19
2022-11-03T21:24:45.170Z,97675.25
2022-11-03T21:27:51.145Z,97664.06
2022-11-03T21:30:59.006Z,97659.50
2022-11-03T21:34:07.245Z,97651.59
2022-11-03T21:37:18.009Z,97651.06
2022-11-03T21:40:23.638Z,97649.41
2022-11-03T21:43:42.184Z,97641.88
2022-11-03T21:46:49.318Z,97637.34
2022-11-03T21:49:55.070Z,97631.78
2022-11-03T21:53:00.968Z,97630.97
2022-11-03T21:56:10.432Z,97631.94
2022-11-03T21:59:18.603Z,97623.28
2022-11-03T22:02:24.367Z,97626.63
2022-11-03T22:05:32.655Z,97617.63
2022-11-03T22:08:39.150Z,97613.28
2022-11-03T22:11:44.835Z,97606.34
2022-11-03T22:15:02.877Z,97597.63
2022-11-03T22:18:09.856Z,97598.84
2022-11-03T22:21:30.622Z,97586.78
2022-11-03T22:24:48.673Z,97577.16
2022-11-03T22:27:54.418Z,97580.81
2022-11-03T22:31:12.570Z,97581.84
2022-11-03T22:34:30.585Z,97578.88
2022-11-03T22:40:58.711Z,97564.69
2022-11-03T22:44:16.862Z,97572.09
2022-11-03T22:47:22.513Z,97553.78
2022-11-03T22:50:31.054Z,97558.38
2022-11-03T22:53:54.417Z,97546.84
2022-11-03T22:57:00.262Z,97554.81
2022-11-03T23:00:07.986Z,97560.38
2022-11-03T23:03:17.506Z,97545.38
2022-11-03T23:06:26.167Z,97538.31
2022-11-03T23:09:34.658Z,97542.34
2022-11-03T23:12:40.364Z,97542.09
2022-11-03T23:15:46.510Z,97527.41
2022-11-03T23:19:04.829Z,97523.41
2022-11-03T23:22:10.631Z,97510.50
2022-11-03T23:25:16.651Z,97512.69
2022-11-03T23:28:22.453Z,97502.34
2022-11-03T23:31:28.326Z,97480.53
2022-11-03T23:34:35.324Z,97477.69
2022-11-03T23:37:41.470Z,97481.00
2022-11-03T23:40:49.883Z,97481.09
2022-11-03T23:43:56.899Z,97459.47
2022-11-03T23:47:21.967Z,97458.63
2022-11-03T23:50:37.696Z,97464.13
2022-11-03T23:53:46.348Z,97453.38
2022-11-03T23:57:13.309Z,97448.63
